• Join FlightAware (Why Join?)
  • Login
  • US Flag 
03:59AM EDT


 

Airport Tracker/Info


-or-


 

Live Flight TrackerFlight Track Log ✈ SWA352 ✈ 19-Apr-2012 ✈ KLAS - KBUF

Flight Track Log - Related Links

Times and Time Zones

All times are in EDT time to prevent confusion due to time zone crossing. See the SWA352 flight status page for this flight to view local times or setup timezone preferences in your user account.

Time Position Orientation Groundspeed Altitude Reporting Facility
EDT Latitude Longitude Course Direction KTS MPH feet Rate Location/Type
08:51PM 36.2879 -113.3990 264° West  Level FlightAware Approximate
08:52PM 36.3369 -113.2638 263° West  Level FlightAware Approximate
08:53PM 36.3372 -113.1248 263° West  Level FlightAware Approximate
08:54PM 36.3874 -112.9902 262° West  Level FlightAware Approximate
08:55PM 36.4373 -112.8555 261° West  Level FlightAware Approximate
08:56PM 36.1267 -115.1236 80° East 194 223 4,100  Level Los Angeles Center
08:57PM 36.1383 -115.0414 84° East 236 272 6,900 2,520 Climbing Los Angeles Center
08:58PM 36.1478 -114.9358 81° East 275 316 9,700 2,520 Climbing Los Angeles Center
08:59PM 36.1614 -114.8250 74° East 303 349 12,500 2,520 Climbing Los Angeles Center
09:00PM 36.1872 -114.7114 89° East 321 369 14,800 2,400 Climbing Los Angeles Center
09:01PM 36.1897 -114.5825 89° East 346 398 17,300 2,460 Climbing Los Angeles Center
09:02PM 36.1922 -114.4461 89° East 373 429 19,800 2,340 Climbing Los Angeles Center
09:03PM 36.1942 -114.3044 84° East 395 455 22,000 2,280 Climbing Los Angeles Center
09:04PM 36.2067 -114.1575 82° East 415 478 24,400 2,400 Climbing Los Angeles Center
09:05PM 36.2231 -114.0131 80° East 421 484 26,800 2,100 Climbing Los Angeles Center
09:06PM 36.2433 -113.8733 68° East 421 484 28,700 1,200 Climbing Los Angeles Center
09:07PM 36.2889 -113.7331 68° East 421 484 29,300 780 Climbing Los Angeles Center
09:08PM 36.3358 -113.5900 67° East 433 498 30,300 1,440 Climbing Los Angeles Center
09:09PM 36.3869 -113.4411 67° East 443 510 32,200 1,800 Climbing Los Angeles Center
09:10PM 36.4358 -113.2975 67° East 443 510 34,000 1,680 Climbing Los Angeles Center
09:11PM 36.4886 -113.1408 66° East 448 516 35,600 1,500 Climbing Los Angeles Center
09:12PM 36.5372 -113.0019 67° East 437 503 37,000 660 Climbing Los Angeles Center
09:13PM 36.5856 -112.8603 66° East 437 503 37,000  Level Los Angeles Center
09:14PM 36.6339 -112.7239 66° East 437 503 37,000  Level Los Angeles Center
09:15PM 36.6842 -112.5819 67° East 437 503 37,000  Level Los Angeles Center
09:16PM 36.7264 -112.4583 68° East 437 503 37,000  Level Los Angeles Center
09:18PM 36.8389 -112.1167 66° East 444 511 37,000  Level Denver Center
09:19PM 36.8875 -111.9778 67° East 444 511 37,000  Level Denver Center
09:20PM 36.9336 -111.8383 64° Northeast 439 505 37,000  Level Denver Center
09:21PM 36.9858 -111.7044 57° Northeast 433 498 37,000  Level Denver Center
09:22PM 37.0500 -111.5792 56° Northeast 421 484 37,000  Level Denver Center
09:23PM 37.1203 -111.4486 59° Northeast 421 484 37,000  Level Denver Center
09:24PM 37.1800 -111.3250 56° Northeast 415 478 37,000  Level Denver Center
09:25PM 37.2456 -111.2017 66° East 415 478 37,000  Level Denver Center
09:26PM 37.2928 -111.0667 68° East 415 478 37,000  Level Denver Center
09:27PM 37.3358 -110.9308 68° East 415 478 37,000  Level Denver Center
09:28PM 37.3786 -110.7950 68° East 415 478 37,000  Level Denver Center
09:29PM 37.4211 -110.6617 68° East 415 478 37,000  Level Denver Center
09:30PM 37.4589 -110.5411 67° East 410 472 37,000  Level Denver Center
09:31PM 37.5031 -110.4128 68° East 404 465 37,000  Level Denver Center
09:32PM 37.5497 -110.2633 68° East 412 474 37,000  Level Denver Center
09:33PM 37.5917 -110.1319 69° East 412 474 37,000  Level Denver Center
09:34PM 37.6333 -109.9978 68° East 405 466 37,000  Level Denver Center
09:35PM 37.6703 -109.8792 68° East 405 466 37,000  Level Denver Center
09:36PM 37.7183 -109.7292 70° East 410 472 37,000  Level Denver Center
09:37PM 37.7578 -109.5917 68° East 411 473 37,000  Level Denver Center
09:38PM 37.8008 -109.4597 69° East 411 473 37,000  Level Denver Center
09:39PM 37.8372 -109.3403 70° East 406 467 37,000  Level Denver Center
09:40PM 37.8761 -109.2050 69° East 406 467 37,000  Level Denver Center
09:41PM 37.9214 -109.0569 69° East 406 467 37,000  Level Denver Center
09:42PM 37.9617 -108.9242 69° East 406 467 37,000  Level Denver Center
09:43PM 37.9978 -108.8042 70° East 406 467 37,000  Level Denver Center
09:44PM 38.0356 -108.6736 71° East 401 461 37,000  Level Denver Center
09:45PM 38.0739 -108.5297 69° East 401 461 37,000  Level Denver Center
09:46PM 38.1092 -108.4119 70° East 392 451 37,000  Level Denver Center
09:47PM 38.1511 -108.2681 70° East 384 442 37,000  Level Denver Center
09:48PM 38.1886 -108.1369 70° East 384 442 37,000  Level Denver Center
09:49PM 38.2258 -108.0083 70° East 384 442 37,000  Level Denver Center
09:50PM 38.2608 -107.8875 71° East 389 448 37,000  Level Denver Center
09:51PM 38.3000 -107.7428 70° East 384 442 37,000  Level Denver Center
09:52PM 38.3392 -107.6086 69° East 389 448 37,000 60 Level Denver Center
09:53PM 38.3756 -107.4872 70° East 397 457 37,200 360 Climbing Denver Center
09:54PM 38.4144 -107.3475 71° East 414 476 37,800 540 Climbing Denver Center
09:55PM 38.4572 -107.1861 69° East 426 490 38,300 420 Climbing Denver Center
09:56PM 38.5039 -107.0328 71° East 442 509 38,700 300 Climbing Denver Center
09:57PM 38.5400 -106.8978 71° East 450 518 39,000 120 Climbing Denver Center
09:58PM 38.5842 -106.7308 69° East 450 518 39,000  Level Denver Center
09:59PM 38.6303 -106.5794 72° East 450 518 39,000  Level Denver Center
10:00PM 38.6678 -106.4278 70° East 445 512 39,000  Level Denver Center
10:01PM 38.7053 -106.2950 72° East 440 506 39,000  Level Denver Center
10:02PM 38.7486 -106.1244 70° East 448 516 39,000  Level Denver Center
10:03PM 38.7900 -105.9750 71° East 448 516 39,000  Level Denver Center
10:04PM 38.8247 -105.8417 71° East 443 510 39,000  Level Denver Center
10:05PM 38.8653 -105.6864 71° East 443 510 39,000  Level Denver Center
10:06PM 38.9058 -105.5339 71° East 443 510 39,000  Level Denver Center
10:07PM 38.9464 -105.3839 72° East 443 510 39,000  Level Denver Center
10:08PM 38.9844 -105.2339 71° East 443 510 39,000  Level Denver Center
10:09PM 39.0264 -105.0808 72° East 448 516 39,000  Level Denver Center
10:10PM 39.0661 -104.9247 71° East 448 516 39,000  Level Denver Center
10:11PM 39.1058 -104.7742 72° East 443 510 39,000  Level Denver Center
10:12PM 39.1450 -104.6206 72° East 443 510 39,000  Level Denver Center
10:13PM 39.1842 -104.4669 72° East 443 510 39,000  Level Denver Center
10:14PM 39.2231 -104.3103 72° East 443 510 39,000  Level Denver Center
10:15PM 39.2656 -104.1425 73° East 443 510 39,000  Level Denver Center
10:16PM 39.3039 -103.9831 72° East 443 510 39,000  Level Denver Center
10:17PM 39.3442 -103.8258 72° East 448 516 39,000  Level Denver Center
10:18PM 39.3822 -103.6711 72° East 448 516 39,000  Level Denver Center
10:19PM 39.4222 -103.5111 73° East 453 521 39,000  Level Denver Center
10:20PM 39.4597 -103.3533 72° East 458 527 39,000  Level Denver Center
10:21PM 39.4989 -103.1928 73° East 464 534 39,000  Level Denver Center
10:22PM 39.5381 -103.0294 73° East 464 534 39,000  Level Denver Center
10:23PM 39.5769 -102.8683 73° East 464 534 39,000  Level Denver Center
10:24PM 39.6153 -102.7047 74° East 469 540 39,000  Level Denver Center
10:25PM 39.6478 -102.5544 73° East 469 540 39,000  Level Denver Center
10:26PM 39.6861 -102.3931 74° East 469 540 39,000  Level Denver Center
10:27PM 39.7253 -102.2097 73° East 469 540 39,000  Level Denver Center
10:28PM 39.7647 -102.0425 73° East 469 540 39,000  Level Denver Center
10:29PM 39.7986 -101.8942 73° East 469 540 39,000  Level Denver Center
10:30PM 39.8378 -101.7267 75° East 469 540 39,000  Level Denver Center
10:31PM 39.8778 -101.5369 73° East 485 558 39,000  Level Denver Center
10:32PM 39.9164 -101.3717 74° East 485 558 39,000  Level Denver Center
10:33PM 39.9494 -101.2228 74° East 479 551 39,000  Level Denver Center
10:34PM 39.9889 -101.0408 74° East 473 544 39,000  Level Denver Center
10:35PM 40.0247 -100.8753 74° East 473 544 39,000  Level Denver Center
10:36PM 40.0603 -100.7094 74° East 468 539 39,000  Level Denver Center
10:37PM 40.0925 -100.5628 75° East 468 539 39,000  Level Denver Center
10:38PM 40.1308 -100.3772 75° East 468 539 39,000  Level Denver Center
10:39PM 40.1658 -100.2108 74° East 474 545 39,000  Level Denver Center
10:40PM 40.1989 -100.0583 75° East 474 545 39,000  Level Denver Center
10:43PM 40.2825 -99.6406 75° East 485 558 39,000  Level Minneapolis Center
10:44PM 40.3172 -99.4672 75° East 485 558 39,000  Level Minneapolis Center
10:45PM 40.3489 -99.3125 75° East 485 558 39,000  Level Minneapolis Center
10:46PM 40.3828 -99.1414 75° East 485 558 39,000  Level Minneapolis Center
10:47PM 40.4167 -98.9728 75° East 485 558 39,000  Level Minneapolis Center
10:48PM 40.4500 -98.8042 76° East 485 558 39,000  Level Minneapolis Center
10:49PM 40.4811 -98.6353 76° East 485 558 39,000  Level Minneapolis Center
10:50PM 40.5139 -98.4661 76° East 485 558 39,000  Level Minneapolis Center
10:51PM 40.5469 -98.2942 76° East 485 558 39,000  Level Minneapolis Center
10:52PM 40.5792 -98.1247 76° East 485 558 39,000  Level Minneapolis Center
10:53PM 40.6114 -97.9550 76° East 485 558 39,000  Level Minneapolis Center
10:54PM 40.6433 -97.7825 75° East 485 558 39,000  Level Minneapolis Center
10:55PM 40.6769 -97.6128 76° East 485 558 39,000  Level Minneapolis Center
10:56PM 40.7086 -97.4397 79° East 485 558 39,000  Level Minneapolis Center
10:57PM 40.7333 -97.2719 77° East 480 552 39,000  Level Minneapolis Center
10:58PM 40.7642 -97.1014 77° East 480 552 39,000  Level Minneapolis Center
10:59PM 40.7947 -96.9306 76° East 480 552 39,000  Level Minneapolis Center
11:00PM 40.8272 -96.7572 78° East 480 552 39,000  Level Minneapolis Center
11:01PM 40.8550 -96.5861 77° East 480 552 39,000  Level Minneapolis Center
11:02PM 40.8850 -96.4147 78° East 480 552 39,000  Level Minneapolis Center
11:03PM 40.9144 -96.2381 77° East 487 560 39,000  Level Minneapolis Center
11:04PM 40.9439 -96.0664 78° East 487 560 39,000  Level Minneapolis Center
11:05PM 40.9728 -95.8919 77° East 482 555 39,000  Level Minneapolis Center
11:06PM 41.0036 -95.7119 78° East 488 562 39,000  Level Minneapolis Center
11:07PM 41.0322 -95.5400 78° East 488 562 39,000  Level Minneapolis Center
11:08PM 41.0603 -95.3622 78° East 488 562 39,000  Level Minneapolis Center
11:09PM 41.0883 -95.1844 77° East 488 562 39,000  Level Minneapolis Center
11:10PM 41.1181 -95.0119 77° East 488 562 39,000  Level Minneapolis Center
11:11PM 41.1475 -94.8367 78° East 488 562 39,000  Level Minneapolis Center
11:12PM 41.1744 -94.6639 78° East 488 562 39,000  Level Minneapolis Center
11:13PM 41.2014 -94.4881 78° East 488 562 39,000  Level Minneapolis Center
11:14PM 41.2278 -94.3150 79° East 488 562 39,000  Level Minneapolis Center
11:15PM 41.2742 -94.0031 79° East 486 559 39,000  Level Chicago Center
11:16PM 41.2994 -93.8364 78° East 480 552 39,000  Level Chicago Center
11:17PM 41.3275 -93.6556 79° East 485 558 39,000  Level Chicago Center
11:18PM 41.3525 -93.4831 79° East 485 558 39,000  Level Chicago Center
11:19PM 41.3775 -93.3075 79° East 485 558 39,000  Level Chicago Center
11:20PM 41.4044 -93.1292 79° East 485 558 39,000  Level Chicago Center
11:21PM 41.4286 -92.9561 80° East 485 558 39,000  Level Chicago Center
11:22PM 41.4531 -92.7772 80° East 485 558 39,000  Level Chicago Center
11:23PM 41.4769 -92.6011 83° East 480 552 39,000  Level Chicago Center
11:24PM 41.4950 -92.3967 78° East 488 562 39,000  Level Chicago Center
11:25PM 41.5222 -92.2261 80° East 483 556 39,000  Level Chicago Center
11:26PM 41.5453 -92.0522 79° East 478 550 39,000  Level Chicago Center
11:27PM 41.5703 -91.8783 80° East 478 550 39,000  Level Chicago Center
11:28PM 41.5928 -91.7017 80° East 470 541 39,000  Level Chicago Center
11:29PM 41.6150 -91.5275 81° East 481 554 39,000  Level Chicago Center
11:30PM 41.6347 -91.3531 80° East 481 554 39,000  Level Chicago Center
11:31PM 41.6564 -91.1897 81° East 481 554 39,000  Level Chicago Center
11:32PM 41.6778 -91.0125 81° East 481 554 39,000  Level Chicago Center
11:33PM 41.6989 -90.8406 81° East 481 554 39,000  Level Chicago Center
11:34PM 41.7197 -90.6631 79° East 481 554 39,000  Level Chicago Center
11:35PM 41.7444 -90.4881 81° East 475 547 39,000  Level Chicago Center
11:36PM 41.7650 -90.3103 82° East 475 547 39,000  Level Chicago Center
11:37PM 41.7831 -90.1325 82° East 485 558 39,000  Level Chicago Center
11:38PM 41.8028 -89.9542 81° East 485 558 39,000  Level Chicago Center
11:39PM 41.8244 -89.7594 83° East 479 551 39,000  Level Chicago Center
11:40PM 41.8417 -89.5811 82° East 479 551 39,000  Level Chicago Center
11:41PM 41.8606 -89.4028 80° East 484 557 39,000  Level Chicago Center
11:42PM 41.8836 -89.2217 83° East 484 557 39,000  Level Chicago Center
11:43PM 41.8997 -89.0431 81° East 484 557 39,000  Level Chicago Center
11:44PM 41.9200 -88.8644 82° East 484 557 39,000  Level Chicago Center
11:45PM 41.9378 -88.6828 82° East 484 557 39,000  Level Chicago Center
11:46PM 41.9556 -88.5011 82° East 484 557 39,000  Level Chicago Center
11:47PM 41.9747 -88.3164 82° East 484 557 39,000  Level Chicago Center
11:48PM 41.9939 -88.1375 84° East 484 557 39,000  Level Chicago Center
11:49PM 42.0083 -87.9528 82° East 484 557 39,000  Level Chicago Center
11:50PM 42.0253 -87.7958 83° East 484 557 39,000  Level Chicago Center
11:51PM 42.0414 -87.6192 83° East 479 551 39,000  Level Chicago Center
11:52PM 42.0572 -87.4369 83° East 484 557 39,000  Level Chicago Center
11:53PM 42.0731 -87.2575 83° East 484 557 39,000  Level Chicago Center
11:54PM 42.0919 -87.0553 84° East 484 557 39,000  Level Chicago Center
11:55PM 42.1069 -86.8700 83° East 490 564 39,000  Level Chicago Center
11:56PM 42.1236 -86.6903 84° East 490 564 39,000  Level Chicago Center
11:57PM 42.1381 -86.5103 84° East 483 556 39,000  Level Chicago Center
11:58PM 42.1522 -86.3250 84° East 483 556 39,000  Level Chicago Center
11:59PM 42.1644 -86.1617 84° East 483 556 39,000  Level Chicago Center
12:00AM 42.1781 -85.9817 85° East 483 556 39,000  Level Chicago Center
12:01AM 42.1894 -85.8044 84° East 483 556 39,000  Level Chicago Center
12:04AM 42.2217 -85.3981 85° East 494 568 39,000  Level Cleveland Center
12:05AM 42.2336 -85.2111 81° East 501 577 39,000 -720 Level Cleveland Center
12:35AM 42.7667 -79.8500 81° East 409 471 17,100 -780 Descending Buffalo TRACON
12:36AM 42.7833 -79.7000 90° East 399 459 15,100 -2,820 Descending Buffalo TRACON
12:37AM 42.7833 -79.5500 81° East 405 466 11,500 -2,580 Descending Buffalo TRACON
12:38AM 42.8000 -79.4000 79° East 395 455 10,000 -1,200 Descending Buffalo TRACON
12:39AM 42.8167 -79.2833 79° East 320 368 9,100 -1,500 Descending Buffalo TRACON
12:40AM 42.8333 -79.1667 79° East 315 362 7,000 -1,680 Descending Buffalo TRACON
12:41AM 42.8492 -79.0561 81° East 311 358 5,600 -1,200 Descending Cleveland Center
12:42AM 42.8622 -78.9458 84° East 302 348 4,600 -660 Descending Cleveland Center
12:43AM 42.8681 -78.8719 74° East 221 254 4,300 -1,200 Descending Cleveland Center
12:44AM 42.8833 -78.8000 36° Northeast 179 206 2,400 -1,620 Descending Buffalo TRACON
12:45AM 42.9167 -78.7667 36° Northeast 164 189 1,300 -1,140 Descending Buffalo TRACON